sensor_id;sensor_type;location;lat;lon;timestamp;temperature;humidity
31369;DHT22;18004;48.416;10.066;2022-08-24T00:02:03;16.60;90.50
31369;DHT22;18004;48.416;10.066;2022-08-24T00:04:29;16.60;90.10
31369;DHT22;18004;48.416;10.066;2022-08-24T00:06:54;16.50;91.00
31369;DHT22;18004;48.416;10.066;2022-08-24T00:09:20;16.50;90.90
31369;DHT22;18004;48.416;10.066;2022-08-24T00:11:46;16.50;91.00
31369;DHT22;18004;48.416;10.066;2022-08-24T00:14:12;16.40;91.60
31369;DHT22;18004;48.416;10.066;2022-08-24T00:16:38;16.40;92.10
31369;DHT22;18004;48.416;10.066;2022-08-24T00:19:03;16.40;92.50
31369;DHT22;18004;48.416;10.066;2022-08-24T00:21:29;16.30;92.70
31369;DHT22;18004;48.416;10.066;2022-08-24T00:23:55;16.30;92.80
31369;DHT22;18004;48.416;10.066;2022-08-24T00:26:20;16.20;92.10
31369;DHT22;18004;48.416;10.066;2022-08-24T00:28:46;16.20;91.60
31369;DHT22;18004;48.416;10.066;2022-08-24T00:31:12;16.30;91.40
31369;DHT22;18004;48.416;10.066;2022-08-24T00:33:38;16.20;91.20
31369;DHT22;18004;48.416;10.066;2022-08-24T00:36:05;16.30;91.10
31369;DHT22;18004;48.416;10.066;2022-08-24T00:38:31;16.20;90.50
31369;DHT22;18004;48.416;10.066;2022-08-24T00:40:57;16.20;90.50
31369;DHT22;18004;48.416;10.066;2022-08-24T00:43:23;16.20;90.20
31369;DHT22;18004;48.416;10.066;2022-08-24T00:48:23;16.10;90.30
31369;DHT22;18004;48.416;10.066;2022-08-24T00:50:54;16.10;90.50
31369;DHT22;18004;48.416;10.066;2022-08-24T00:53:24;16.00;90.70
31369;DHT22;18004;48.416;10.066;2022-08-24T00:55:52;16.00;90.30
31369;DHT22;18004;48.416;10.066;2022-08-24T00:58:21;16.00;91.00
31369;DHT22;18004;48.416;10.066;2022-08-24T01:00:48;15.90;91.00
31369;DHT22;18004;48.416;10.066;2022-08-24T01:03:15;15.90;91.00
31369;DHT22;18004;48.416;10.066;2022-08-24T01:05:41;15.80;90.60
31369;DHT22;18004;48.416;10.066;2022-08-24T01:08:07;15.80;90.20
31369;DHT22;18004;48.416;10.066;2022-08-24T01:10:35;15.80;90.60
31369;DHT22;18004;48.416;10.066;2022-08-24T01:13:02;15.70;91.10
31369;DHT22;18004;48.416;10.066;2022-08-24T01:15:31;15.70;91.60
31369;DHT22;18004;48.416;10.066;2022-08-24T01:18:00;15.60;91.50
31369;DHT22;18004;48.416;10.066;2022-08-24T01:20:45;15.60;92.00
31369;DHT22;18004;48.416;10.066;2022-08-24T01:25:48;15.50;91.70
31369;DHT22;18004;48.416;10.066;2022-08-24T01:28:15;15.50;92.20
31369;DHT22;18004;48.416;10.066;2022-08-24T01:30:42;15.50;92.20
31369;DHT22;18004;48.416;10.066;2022-08-24T01:33:08;15.50;91.90
31369;DHT22;18004;48.416;10.066;2022-08-24T01:35:35;15.50;91.90
31369;DHT22;18004;48.416;10.066;2022-08-24T01:38:03;15.40;91.80
31369;DHT22;18004;48.416;10.066;2022-08-24T01:40:32;15.40;91.80
31369;DHT22;18004;48.416;10.066;2022-08-24T01:42:59;15.40;91.70
31369;DHT22;18004;48.416;10.066;2022-08-24T01:45:25;15.30;91.60
31369;DHT22;18004;48.416;10.066;2022-08-24T01:47:50;15.30;91.90
31369;DHT22;18004;48.416;10.066;2022-08-24T01:50:16;15.30;92.10
31369;DHT22;18004;48.416;10.066;2022-08-24T01:52:42;15.20;93.40
31369;DHT22;18004;48.416;10.066;2022-08-24T01:55:10;15.20;93.40
31369;DHT22;18004;48.416;10.066;2022-08-24T01:57:36;15.10;93.20
31369;DHT22;18004;48.416;10.066;2022-08-24T02:00:03;15.10;92.80
31369;DHT22;18004;48.416;10.066;2022-08-24T02:02:30;15.10;93.30
31369;DHT22;18004;48.416;10.066;2022-08-24T02:04:56;15.10;93.90
31369;DHT22;18004;48.416;10.066;2022-08-24T02:07:21;15.10;93.80
31369;DHT22;18004;48.416;10.066;2022-08-24T02:09:47;15.10;94.80
31369;DHT22;18004;48.416;10.066;2022-08-24T02:12:13;15.10;94.90
31369;DHT22;18004;48.416;10.066;2022-08-24T02:14:39;15.00;94.80
31369;DHT22;18004;48.416;10.066;2022-08-24T02:17:05;15.00;95.20
31369;DHT22;18004;48.416;10.066;2022-08-24T02:19:31;14.90;95.50
31369;DHT22;18004;48.416;10.066;2022-08-24T02:21:57;14.90;94.80
31369;DHT22;18004;48.416;10.066;2022-08-24T02:24:27;14.90;94.80
31369;DHT22;18004;48.416;10.066;2022-08-24T02:26:53;14.90;94.50
31369;DHT22;18004;48.416;10.066;2022-08-24T02:29:19;14.90;94.20
31369;DHT22;18004;48.416;10.066;2022-08-24T02:31:44;14.80;94.30
31369;DHT22;18004;48.416;10.066;2022-08-24T02:34:10;14.80;94.50
31369;DHT22;18004;48.416;10.066;2022-08-24T02:36:36;14.80;94.20
31369;DHT22;18004;48.416;10.066;2022-08-24T02:39:03;14.70;93.80
31369;DHT22;18004;48.416;10.066;2022-08-24T02:41:28;14.70;93.50
31369;DHT22;18004;48.416;10.066;2022-08-24T02:43:54;14.70;93.50
31369;DHT22;18004;48.416;10.066;2022-08-24T02:46:21;14.70;93.40
31369;DHT22;18004;48.416;10.066;2022-08-24T02:48:47;14.70;93.40
31369;DHT22;18004;48.416;10.066;2022-08-24T02:51:20;14.70;93.70
31369;DHT22;18004;48.416;10.066;2022-08-24T02:53:46;14.70;93.70
31369;DHT22;18004;48.416;10.066;2022-08-24T02:56:12;14.60;93.80
31369;DHT22;18004;48.416;10.066;2022-08-24T02:58:38;14.60;93.90
31369;DHT22;18004;48.416;10.066;2022-08-24T03:01:03;14.60;94.70
31369;DHT22;18004;48.416;10.066;2022-08-24T03:03:32;14.50;95.20
31369;DHT22;18004;48.416;10.066;2022-08-24T03:05:58;14.40;94.60
31369;DHT22;18004;48.416;10.066;2022-08-24T03:08:23;14.40;94.60
31369;DHT22;18004;48.416;10.066;2022-08-24T03:10:50;14.40;95.10
31369;DHT22;18004;48.416;10.066;2022-08-24T03:13:16;14.30;95.20
31369;DHT22;18004;48.416;10.066;2022-08-24T03:15:42;14.30;95.10
31369;DHT22;18004;48.416;10.066;2022-08-24T03:18:08;14.30;95.50
31369;DHT22;18004;48.416;10.066;2022-08-24T03:20:34;14.20;96.20
31369;DHT22;18004;48.416;10.066;2022-08-24T03:23:00;14.20;95.70
31369;DHT22;18004;48.416;10.066;2022-08-24T03:25:25;14.20;95.90
31369;DHT22;18004;48.416;10.066;2022-08-24T03:27:52;14.20;96.00
31369;DHT22;18004;48.416;10.066;2022-08-24T03:30:18;14.20;96.20
31369;DHT22;18004;48.416;10.066;2022-08-24T03:32:44;14.20;96.20
31369;DHT22;18004;48.416;10.066;2022-08-24T03:35:10;14.10;97.10
31369;DHT22;18004;48.416;10.066;2022-08-24T03:37:36;14.10;97.20
31369;DHT22;18004;48.416;10.066;2022-08-24T03:40:02;14.00;96.90
31369;DHT22;18004;48.416;10.066;2022-08-24T03:42:28;14.00;96.90
31369;DHT22;18004;48.416;10.066;2022-08-24T03:44:54;13.90;97.20
31369;DHT22;18004;48.416;10.066;2022-08-24T03:47:19;13.90;97.50
31369;DHT22;18004;48.416;10.066;2022-08-24T03:49:47;13.90;97.70
31369;DHT22;18004;48.416;10.066;2022-08-24T03:52:13;13.90;98.30
31369;DHT22;18004;48.416;10.066;2022-08-24T03:54:38;13.90;98.20
31369;DHT22;18004;48.416;10.066;2022-08-24T03:57:04;13.90;98.30
31369;DHT22;18004;48.416;10.066;2022-08-24T03:59:30;13.90;98.30
31369;DHT22;18004;48.416;10.066;2022-08-24T04:01:56;13.80;98.30
31369;DHT22;18004;48.416;10.066;2022-08-24T04:04:22;13.80;98.80
31369;DHT22;18004;48.416;10.066;2022-08-24T04:06:48;13.80;99.30
31369;DHT22;18004;48.416;10.066;2022-08-24T04:09:14;13.80;99.30
31369;DHT22;18004;48.416;10.066;2022-08-24T04:11:40;13.80;99.00
31369;DHT22;18004;48.416;10.066;2022-08-24T04:14:10;13.80;99.30
31369;DHT22;18004;48.416;10.066;2022-08-24T04:16:37;13.70;99.10
31369;DHT22;18004;48.416;10.066;2022-08-24T04:19:03;13.80;98.90
31369;DHT22;18004;48.416;10.066;2022-08-24T04:21:30;13.80;98.90
31369;DHT22;18004;48.416;10.066;2022-08-24T04:23:56;13.80;99.10
31369;DHT22;18004;48.416;10.066;2022-08-24T04:26:22;13.80;99.20
31369;DHT22;18004;48.416;10.066;2022-08-24T04:28:48;13.80;99.30
31369;DHT22;18004;48.416;10.066;2022-08-24T04:31:14;13.80;99.50
31369;DHT22;18004;48.416;10.066;2022-08-24T04:33:42;13.70;99.30
31369;DHT22;18004;48.416;10.066;2022-08-24T04:36:09;13.70;99.70
31369;DHT22;18004;48.416;10.066;2022-08-24T04:38:35;13.70;99.00
31369;DHT22;18004;48.416;10.066;2022-08-24T04:41:07;13.70;98.70
31369;DHT22;18004;48.416;10.066;2022-08-24T04:43:34;13.70;98.20
31369;DHT22;18004;48.416;10.066;2022-08-24T04:46:03;13.60;98.40
31369;DHT22;18004;48.416;10.066;2022-08-24T04:48:28;13.70;98.50
31369;DHT22;18004;48.416;10.066;2022-08-24T04:50:54;13.70;98.50
31369;DHT22;18004;48.416;10.066;2022-08-24T04:53:20;13.70;98.70
31369;DHT22;18004;48.416;10.066;2022-08-24T04:55:47;13.60;98.40
31369;DHT22;18004;48.416;10.066;2022-08-24T04:58:15;13.60;98.20
31369;DHT22;18004;48.416;10.066;2022-08-24T05:00:41;13.60;98.00
31369;DHT22;18004;48.416;10.066;2022-08-24T05:03:07;13.70;98.20
31369;DHT22;18004;48.416;10.066;2022-08-24T05:05:33;13.70;98.80
31369;DHT22;18004;48.416;10.066;2022-08-24T05:07:58;13.70;99.10
31369;DHT22;18004;48.416;10.066;2022-08-24T05:10:24;13.60;99.00
31369;DHT22;18004;48.416;10.066;2022-08-24T05:12:50;13.70;99.60
31369;DHT22;18004;48.416;10.066;2022-08-24T05:15:16;13.60;99.90
31369;DHT22;18004;48.416;10.066;2022-08-24T05:17:41;13.70;99.70
31369;DHT22;18004;48.416;10.066;2022-08-24T05:20:08;13.70;99.90
31369;DHT22;18004;48.416;10.066;2022-08-24T05:22:34;13.70;99.90
31369;DHT22;18004;48.416;10.066;2022-08-24T05:25:00;13.70;99.90
31369;DHT22;18004;48.416;10.066;2022-08-24T05:27:25;13.70;99.90
31369;DHT22;18004;48.416;10.066;2022-08-24T05:29:52;13.80;99.90
31369;DHT22;18004;48.416;10.066;2022-08-24T05:32:17;13.80;99.90
31369;DHT22;18004;48.416;10.066;2022-08-24T05:34:44;13.90;99.90
31369;DHT22;18004;48.416;10.066;2022-08-24T05:37:09;14.00;99.90
31369;DHT22;18004;48.416;10.066;2022-08-24T05:39:35;14.10;99.90
31369;DHT22;18004;48.416;10.066;2022-08-24T05:42:01;14.00;99.90
31369;DHT22;18004;48.416;10.066;2022-08-24T05:44:27;14.10;99.90
31369;DHT22;18004;48.416;10.066;2022-08-24T05:46:54;14.20;99.90
31369;DHT22;18004;48.416;10.066;2022-08-24T05:49:23;14.20;99.90
31369;DHT22;18004;48.416;10.066;2022-08-24T05:51:48;14.30;99.90
31369;DHT22;18004;48.416;10.066;2022-08-24T05:54:14;14.40;99.90
31369;DHT22;18004;48.416;10.066;2022-08-24T05:56:40;14.40;99.90
31369;DHT22;18004;48.416;10.066;2022-08-24T05:59:06;14.40;99.90
31369;DHT22;18004;48.416;10.066;2022-08-24T06:01:31;14.40;99.90
31369;DHT22;18004;48.416;10.066;2022-08-24T06:03:58;14.50;99.90
31369;DHT22;18004;48.416;10.066;2022-08-24T06:06:24;14.50;99.90
31369;DHT22;18004;48.416;10.066;2022-08-24T06:08:52;14.60;99.90
31369;DHT22;18004;48.416;10.066;2022-08-24T06:11:26;14.60;99.90
31369;DHT22;18004;48.416;10.066;2022-08-24T06:13:53;14.70;99.90
31369;DHT22;18004;48.416;10.066;2022-08-24T06:16:19;14.80;99.90
31369;DHT22;18004;48.416;10.066;2022-08-24T06:18:45;14.90;99.90
31369;DHT22;18004;48.416;10.066;2022-08-24T06:21:12;15.00;99.90
31369;DHT22;18004;48.416;10.066;2022-08-24T06:23:38;15.20;99.90
31369;DHT22;18004;48.416;10.066;2022-08-24T06:26:05;15.30;99.90
31369;DHT22;18004;48.416;10.066;2022-08-24T06:28:49;15.30;99.90
31369;DHT22;18004;48.416;10.066;2022-08-24T06:31:17;15.30;99.90
31369;DHT22;18004;48.416;10.066;2022-08-24T06:33:43;15.40;99.90
31369;DHT22;18004;48.416;10.066;2022-08-24T06:36:08;15.60;99.90
31369;DHT22;18004;48.416;10.066;2022-08-24T06:38:34;15.60;99.90
31369;DHT22;18004;48.416;10.066;2022-08-24T06:41:00;15.70;99.90
31369;DHT22;18004;48.416;10.066;2022-08-24T06:43:26;15.70;99.90
31369;DHT22;18004;48.416;10.066;2022-08-24T06:45:52;15.80;99.90
31369;DHT22;18004;48.416;10.066;2022-08-24T06:48:19;15.90;99.90
31369;DHT22;18004;48.416;10.066;2022-08-24T06:50:45;15.90;99.90
31369;DHT22;18004;48.416;10.066;2022-08-24T06:53:12;16.00;99.90
31369;DHT22;18004;48.416;10.066;2022-08-24T06:55:58;16.10;99.90
31369;DHT22;18004;48.416;10.066;2022-08-24T06:58:24;16.20;99.50
31369;DHT22;18004;48.416;10.066;2022-08-24T07:00:55;16.20;99.90
31369;DHT22;18004;48.416;10.066;2022-08-24T07:03:22;16.40;99.90
31369;DHT22;18004;48.416;10.066;2022-08-24T07:05:51;16.50;97.20
31369;DHT22;18004;48.416;10.066;2022-08-24T07:08:17;16.60;97.20
31369;DHT22;18004;48.416;10.066;2022-08-24T07:10:42;16.80;97.10
31369;DHT22;18004;48.416;10.066;2022-08-24T07:13:08;16.90;95.50
31369;DHT22;18004;48.416;10.066;2022-08-24T07:15:35;17.20;95.00
31369;DHT22;18004;48.416;10.066;2022-08-24T07:18:01;17.30;94.30
31369;DHT22;18004;48.416;10.066;2022-08-24T07:20:30;17.30;93.70
31369;DHT22;18004;48.416;10.066;2022-08-24T07:22:55;17.40;93.70
31369;DHT22;18004;48.416;10.066;2022-08-24T07:25:21;17.60;94.00
31369;DHT22;18004;48.416;10.066;2022-08-24T07:27:47;17.60;92.50
31369;DHT22;18004;48.416;10.066;2022-08-24T07:30:12;17.70;93.10
31369;DHT22;18004;48.416;10.066;2022-08-24T07:32:38;18.10;92.50
31369;DHT22;18004;48.416;10.066;2022-08-24T07:35:04;18.20;90.70
31369;DHT22;18004;48.416;10.066;2022-08-24T07:37:30;18.20;91.90
31369;DHT22;18004;48.416;10.066;2022-08-24T07:39:56;18.20;91.00
31369;DHT22;18004;48.416;10.066;2022-08-24T07:42:22;18.30;92.10
31369;DHT22;18004;48.416;10.066;2022-08-24T07:44:49;18.60;90.40
31369;DHT22;18004;48.416;10.066;2022-08-24T07:47:17;18.70;89.70
31369;DHT22;18004;48.416;10.066;2022-08-24T07:49:47;18.70;89.20
31369;DHT22;18004;48.416;10.066;2022-08-24T07:52:13;18.70;90.00
31369;DHT22;18004;48.416;10.066;2022-08-24T07:54:39;18.80;88.00
31369;DHT22;18004;48.416;10.066;2022-08-24T07:57:05;19.00;86.90
31369;DHT22;18004;48.416;10.066;2022-08-24T07:59:31;19.20;85.80
31369;DHT22;18004;48.416;10.066;2022-08-24T08:01:57;19.20;81.30
31369;DHT22;18004;48.416;10.066;2022-08-24T08:04:23;19.20;83.50
31369;DHT22;18004;48.416;10.066;2022-08-24T08:06:51;19.20;84.50
31369;DHT22;18004;48.416;10.066;2022-08-24T08:09:17;19.30;82.60
31369;DHT22;18004;48.416;10.066;2022-08-24T08:11:42;19.30;80.40
31369;DHT22;18004;48.416;10.066;2022-08-24T08:14:08;19.30;80.70
31369;DHT22;18004;48.416;10.066;2022-08-24T08:16:34;19.70;80.60
31369;DHT22;18004;48.416;10.066;2022-08-24T08:19:00;19.80;77.40
31369;DHT22;18004;48.416;10.066;2022-08-24T08:21:25;20.00;76.40
31369;DHT22;18004;48.416;10.066;2022-08-24T08:24:10;20.00;74.30
31369;DHT22;18004;48.416;10.066;2022-08-24T08:26:43;20.00;71.70
31369;DHT22;18004;48.416;10.066;2022-08-24T08:29:09;20.30;70.20
31369;DHT22;18004;48.416;10.066;2022-08-24T08:31:36;20.10;69.70
31369;DHT22;18004;48.416;10.066;2022-08-24T08:34:02;20.30;69.80
31369;DHT22;18004;48.416;10.066;2022-08-24T08:36:28;20.40;69.10
31369;DHT22;18004;48.416;10.066;2022-08-24T08:38:54;20.50;65.80
31369;DHT22;18004;48.416;10.066;2022-08-24T08:44:11;20.60;65.90
31369;DHT22;18004;48.416;10.066;2022-08-24T08:57:55;22.20;49.40
31369;DHT22;18004;48.416;10.066;2022-08-24T09:00:24;21.90;50.00
31369;DHT22;18004;48.416;10.066;2022-08-24T09:02:55;21.60;52.80
31369;DHT22;18004;48.416;10.066;2022-08-24T09:05:31;21.90;51.40
31369;DHT22;18004;48.416;10.066;2022-08-24T09:26:26;22.10;49.20
31369;DHT22;18004;48.416;10.066;2022-08-24T09:34:49;22.80;45.40
31369;DHT22;18004;48.416;10.066;2022-08-24T09:40:15;23.10;42.10
31369;DHT22;18004;48.416;10.066;2022-08-24T09:50:45;23.90;32.90
31369;DHT22;18004;48.416;10.066;2022-08-24T09:56:00;23.80;32.10
31369;DHT22;18004;48.416;10.066;2022-08-24T09:58:33;23.40;32.50
31369;DHT22;18004;48.416;10.066;2022-08-24T10:01:08;23.40;33.10
31369;DHT22;18004;48.416;10.066;2022-08-24T10:04:00;23.50;33.40
31369;DHT22;18004;48.416;10.066;2022-08-24T10:09:02;24.10;30.80
31369;DHT22;18004;48.416;10.066;2022-08-24T10:27:35;24.40;25.20
31369;DHT22;18004;48.416;10.066;2022-08-24T10:35:05;24.20;23.70
31369;DHT22;18004;48.416;10.066;2022-08-24T10:37:46;24.40;20.60
31369;DHT22;18004;48.416;10.066;2022-08-24T10:40:43;24.40;22.40
31369;DHT22;18004;48.416;10.066;2022-08-24T10:48:31;24.60;19.80
31369;DHT22;18004;48.416;10.066;2022-08-24T10:53:26;24.40;19.60
31369;DHT22;18004;48.416;10.066;2022-08-24T10:55:59;24.40;18.30
31369;DHT22;18004;48.416;10.066;2022-08-24T11:06:16;24.70;16.10
31369;DHT22;18004;48.416;10.066;2022-08-24T11:08:56;24.80;14.40
31369;DHT22;18004;48.416;10.066;2022-08-24T11:11:27;24.90;16.20
31369;DHT22;18004;48.416;10.066;2022-08-24T11:14:39;25.00;16.20
31369;DHT22;18004;48.416;10.066;2022-08-24T11:16:41;25.10;14.90
31369;DHT22;18004;48.416;10.066;2022-08-24T11:19:09;25.30;13.80
31369;DHT22;18004;48.416;10.066;2022-08-24T11:24:03;25.20;15.00
31369;DHT22;18004;48.416;10.066;2022-08-24T11:26:29;25.30;14.90
31369;DHT22;18004;48.416;10.066;2022-08-24T11:28:58;25.50;13.90
31369;DHT22;18004;48.416;10.066;2022-08-24T11:34:02;26.20;10.80
31369;DHT22;18004;48.416;10.066;2022-08-24T11:36:28;26.40;10.50
31369;DHT22;18004;48.416;10.066;2022-08-24T11:41:35;26.50;10.60
31369;DHT22;18004;48.416;10.066;2022-08-24T11:44:17;27.10;8.80
31369;DHT22;18004;48.416;10.066;2022-08-24T11:46:52;26.80;9.80
31369;DHT22;18004;48.416;10.066;2022-08-24T11:49:27;26.20;11.50
31369;DHT22;18004;48.416;10.066;2022-08-24T11:52:08;26.80;11.30
31369;DHT22;18004;48.416;10.066;2022-08-24T11:54:44;26.30;12.10
31369;DHT22;18004;48.416;10.066;2022-08-24T11:57:17;25.70;13.70
31369;DHT22;18004;48.416;10.066;2022-08-24T12:02:32;25.80;13.80
31369;DHT22;18004;48.416;10.066;2022-08-24T12:05:04;26.00;13.90
31369;DHT22;18004;48.416;10.066;2022-08-24T12:13:00;26.20;13.30
31369;DHT22;18004;48.416;10.066;2022-08-24T12:20:49;26.50;13.10
31369;DHT22;18004;48.416;10.066;2022-08-24T12:23:19;26.70;11.30
31369;DHT22;18004;48.416;10.066;2022-08-24T12:25:50;26.10;13.40
31369;DHT22;18004;48.416;10.066;2022-08-24T12:28:29;25.90;13.60
31369;DHT22;18004;48.416;10.066;2022-08-24T12:30:57;25.80;14.50
31369;DHT22;18004;48.416;10.066;2022-08-24T12:33:27;25.90;14.50
31369;DHT22;18004;48.416;10.066;2022-08-24T12:35:55;26.30;14.50
31369;DHT22;18004;48.416;10.066;2022-08-24T12:38:26;26.30;12.80
31369;DHT22;18004;48.416;10.066;2022-08-24T12:43:39;26.00;15.10
31369;DHT22;18004;48.416;10.066;2022-08-24T12:46:06;25.90;14.40
31369;DHT22;18004;48.416;10.066;2022-08-24T12:59:22;27.20;11.20
31369;DHT22;18004;48.416;10.066;2022-08-24T13:01:57;26.90;11.80
31369;DHT22;18004;48.416;10.066;2022-08-24T13:04:31;26.80;12.00
31369;DHT22;18004;48.416;10.066;2022-08-24T13:07:03;26.80;12.10
31369;DHT22;18004;48.416;10.066;2022-08-24T13:11:55;27.10;11.70
31369;DHT22;18004;48.416;10.066;2022-08-24T13:14:26;27.10;11.50
31369;DHT22;18004;48.416;10.066;2022-08-24T13:26:54;26.50;12.10
31369;DHT22;18004;48.416;10.066;2022-08-24T13:29:20;26.60;12.30
31369;DHT22;18004;48.416;10.066;2022-08-24T13:31:49;26.80;12.10
31369;DHT22;18004;48.416;10.066;2022-08-24T13:44:55;26.70;11.90
31369;DHT22;18004;48.416;10.066;2022-08-24T13:50:01;26.40;14.00
31369;DHT22;18004;48.416;10.066;2022-08-24T13:52:37;26.60;13.80
31369;DHT22;18004;48.416;10.066;2022-08-24T13:58:22;26.50;13.50
31369;DHT22;18004;48.416;10.066;2022-08-24T14:07:54;26.40;14.00
31369;DHT22;18004;48.416;10.066;2022-08-24T14:16:01;26.80;12.50
31369;DHT22;18004;48.416;10.066;2022-08-24T14:21:20;26.50;14.00
31369;DHT22;18004;48.416;10.066;2022-08-24T14:24:04;26.60;12.90
31369;DHT22;18004;48.416;10.066;2022-08-24T14:29:24;26.50;13.10
31369;DHT22;18004;48.416;10.066;2022-08-24T14:42:16;26.80;12.70
31369;DHT22;18004;48.416;10.066;2022-08-24T14:44:46;26.60;12.50
31369;DHT22;18004;48.416;10.066;2022-08-24T14:49:59;26.40;12.90
31369;DHT22;18004;48.416;10.066;2022-08-24T14:55:09;26.20;13.30
31369;DHT22;18004;48.416;10.066;2022-08-24T15:07:53;26.70;12.30
31369;DHT22;18004;48.416;10.066;2022-08-24T15:10:19;26.70;12.20
31369;DHT22;18004;48.416;10.066;2022-08-24T15:15:23;26.70;12.60
31369;DHT22;18004;48.416;10.066;2022-08-24T15:20:19;26.80;12.80
31369;DHT22;18004;48.416;10.066;2022-08-24T15:25:33;26.20;13.00
31369;DHT22;18004;48.416;10.066;2022-08-24T15:28:20;26.20;13.20
31369;DHT22;18004;48.416;10.066;2022-08-24T15:30:53;26.00;13.50
31369;DHT22;18004;48.416;10.066;2022-08-24T15:33:19;26.00;13.40
31369;DHT22;18004;48.416;10.066;2022-08-24T15:35:46;26.00;13.20
31369;DHT22;18004;48.416;10.066;2022-08-24T15:38:22;26.00;13.50
31369;DHT22;18004;48.416;10.066;2022-08-24T15:41:01;26.10;14.40
31369;DHT22;18004;48.416;10.066;2022-08-24T15:43:28;26.40;13.10
31369;DHT22;18004;48.416;10.066;2022-08-24T15:45:53;26.20;13.20
31369;DHT22;18004;48.416;10.066;2022-08-24T15:48:20;26.10;13.30
31369;DHT22;18004;48.416;10.066;2022-08-24T15:50:49;25.90;13.50
31369;DHT22;18004;48.416;10.066;2022-08-24T15:53:32;25.90;13.80
31369;DHT22;18004;48.416;10.066;2022-08-24T15:58:44;26.10;13.50
31369;DHT22;18004;48.416;10.066;2022-08-24T16:03:55;26.00;14.60
31369;DHT22;18004;48.416;10.066;2022-08-24T16:06:26;25.90;13.00
31369;DHT22;18004;48.416;10.066;2022-08-24T16:09:05;25.70;13.80
31369;DHT22;18004;48.416;10.066;2022-08-24T16:11:41;25.70;13.10
31369;DHT22;18004;48.416;10.066;2022-08-24T16:14:11;25.70;13.90
31369;DHT22;18004;48.416;10.066;2022-08-24T16:16:39;25.70;14.10
31369;DHT22;18004;48.416;10.066;2022-08-24T16:19:06;25.80;13.30
31369;DHT22;18004;48.416;10.066;2022-08-24T16:21:34;25.80;13.60
31369;DHT22;18004;48.416;10.066;2022-08-24T16:26:50;25.80;13.10
31369;DHT22;18004;48.416;10.066;2022-08-24T16:34:30;25.90;12.10
31369;DHT22;18004;48.416;10.066;2022-08-24T16:36:59;26.00;12.30
31369;DHT22;18004;48.416;10.066;2022-08-24T16:39:25;25.90;12.40
31369;DHT22;18004;48.416;10.066;2022-08-24T16:42:01;25.90;12.40
31369;DHT22;18004;48.416;10.066;2022-08-24T16:44:28;25.70;12.90
31369;DHT22;18004;48.416;10.066;2022-08-24T16:46:55;25.70;13.50
31369;DHT22;18004;48.416;10.066;2022-08-24T16:49:21;25.70;13.20
31369;DHT22;18004;48.416;10.066;2022-08-24T16:51:47;25.60;13.00
31369;DHT22;18004;48.416;10.066;2022-08-24T16:54:12;25.70;12.00
31369;DHT22;18004;48.416;10.066;2022-08-24T16:56:38;25.60;12.60
31369;DHT22;18004;48.416;10.066;2022-08-24T16:59:04;25.60;12.80
31369;DHT22;18004;48.416;10.066;2022-08-24T17:01:30;25.40;13.70
31369;DHT22;18004;48.416;10.066;2022-08-24T17:03:56;25.40;13.30
31369;DHT22;18004;48.416;10.066;2022-08-24T17:06:22;25.40;13.30
31369;DHT22;18004;48.416;10.066;2022-08-24T17:08:47;25.20;13.80
31369;DHT22;18004;48.416;10.066;2022-08-24T17:11:13;25.20;14.20
31369;DHT22;18004;48.416;10.066;2022-08-24T17:13:39;25.20;14.50
31369;DHT22;18004;48.416;10.066;2022-08-24T17:16:06;25.10;15.20
31369;DHT22;18004;48.416;10.066;2022-08-24T17:18:33;25.00;15.40
31369;DHT22;18004;48.416;10.066;2022-08-24T17:20:58;25.00;15.50
31369;DHT22;18004;48.416;10.066;2022-08-24T17:23:25;25.10;15.20
31369;DHT22;18004;48.416;10.066;2022-08-24T17:25:51;25.00;15.70
31369;DHT22;18004;48.416;10.066;2022-08-24T17:28:17;25.00;15.60
31369;DHT22;18004;48.416;10.066;2022-08-24T17:30:43;25.00;15.70
31369;DHT22;18004;48.416;10.066;2022-08-24T17:33:08;24.90;16.50
31369;DHT22;18004;48.416;10.066;2022-08-24T17:35:37;24.70;16.70
31369;DHT22;18004;48.416;10.066;2022-08-24T17:38:03;24.60;17.40
31369;DHT22;18004;48.416;10.066;2022-08-24T17:40:29;24.50;18.10
31369;DHT22;18004;48.416;10.066;2022-08-24T17:42:56;24.40;18.80
31369;DHT22;18004;48.416;10.066;2022-08-24T17:45:22;24.40;19.70
31369;DHT22;18004;48.416;10.066;2022-08-24T17:47:48;24.20;19.70
31369;DHT22;18004;48.416;10.066;2022-08-24T17:50:14;24.10;21.20
31369;DHT22;18004;48.416;10.066;2022-08-24T17:52:40;24.00;21.50
31369;DHT22;18004;48.416;10.066;2022-08-24T17:55:06;23.90;22.70
31369;DHT22;18004;48.416;10.066;2022-08-24T17:57:33;23.80;22.90
31369;DHT22;18004;48.416;10.066;2022-08-24T17:59:59;23.70;22.70
31369;DHT22;18004;48.416;10.066;2022-08-24T18:02:25;23.70;23.00
31369;DHT22;18004;48.416;10.066;2022-08-24T18:04:51;23.70;23.50
31369;DHT22;18004;48.416;10.066;2022-08-24T18:07:18;23.60;23.70
31369;DHT22;18004;48.416;10.066;2022-08-24T18:09:53;23.50;24.30
31369;DHT22;18004;48.416;10.066;2022-08-24T18:12:21;23.60;24.30
31369;DHT22;18004;48.416;10.066;2022-08-24T18:14:47;23.50;25.10
31369;DHT22;18004;48.416;10.066;2022-08-24T18:17:14;23.40;25.70
31369;DHT22;18004;48.416;10.066;2022-08-24T18:19:41;23.30;26.30
31369;DHT22;18004;48.416;10.066;2022-08-24T18:22:08;23.30;25.70
31369;DHT22;18004;48.416;10.066;2022-08-24T18:24:34;23.30;26.20
31369;DHT22;18004;48.416;10.066;2022-08-24T18:27:00;23.20;26.50
31369;DHT22;18004;48.416;10.066;2022-08-24T18:29:27;23.20;26.90
31369;DHT22;18004;48.416;10.066;2022-08-24T18:31:53;23.20;27.10
31369;DHT22;18004;48.416;10.066;2022-08-24T18:34:19;23.00;27.50
31369;DHT22;18004;48.416;10.066;2022-08-24T18:36:46;23.00;27.50
31369;DHT22;18004;48.416;10.066;2022-08-24T18:39:12;23.00;27.40
31369;DHT22;18004;48.416;10.066;2022-08-24T18:41:38;22.80;28.60
31369;DHT22;18004;48.416;10.066;2022-08-24T18:44:05;22.80;29.30
31369;DHT22;18004;48.416;10.066;2022-08-24T18:46:31;22.70;30.60
31369;DHT22;18004;48.416;10.066;2022-08-24T18:48:57;22.70;31.60
31369;DHT22;18004;48.416;10.066;2022-08-24T18:51:23;22.70;30.70
31369;DHT22;18004;48.416;10.066;2022-08-24T18:53:50;22.70;31.90
31369;DHT22;18004;48.416;10.066;2022-08-24T18:56:17;22.60;31.70
31369;DHT22;18004;48.416;10.066;2022-08-24T18:58:42;22.70;31.60
31369;DHT22;18004;48.416;10.066;2022-08-24T19:01:08;22.70;31.70
31369;DHT22;18004;48.416;10.066;2022-08-24T19:03:34;22.80;32.90
31369;DHT22;18004;48.416;10.066;2022-08-24T19:06:00;22.80;33.50